sensor_id;sensor_type;location;lat;lon;timestamp;pressure;altitude;pressure_sealevel;temperature;humidity
40982;BME280;26708;50.304;19.028;2023-04-19T00:00:31;98556.53;;;12.68;63.59
40982;BME280;26708;50.304;19.028;2023-04-19T00:02:39;98471.31;;;12.17;63.83
40982;BME280;26708;50.304;19.028;2023-04-19T00:04:44;98556.53;;;12.68;63.88
40982;BME280;26708;50.304;19.028;2023-04-19T00:06:49;98577.38;;;12.80;63.61
40982;BME280;26708;50.304;19.028;2023-04-19T00:08:55;98574.78;;;12.78;63.66
40982;BME280;26708;50.304;19.028;2023-04-19T00:11:00;98577.44;;;12.75;63.50
40982;BME280;26708;50.304;19.028;2023-04-19T00:13:05;98573.13;;;12.71;63.44
40982;BME280;26708;50.304;19.028;2023-04-19T00:15:11;98576.66;;;12.66;63.38
40982;BME280;26708;50.304;19.028;2023-04-19T00:17:15;98569.72;;;12.62;63.56
40982;BME280;26708;50.304;19.028;2023-04-19T00:19:22;98570.59;;;12.61;63.73
40982;BME280;26708;50.304;19.028;2023-04-19T00:21:28;98507.22;;;12.11;63.41
40982;BME280;26708;50.304;19.028;2023-04-19T00:23:32;98530.69;;;12.29;63.65
40982;BME280;26708;50.304;19.028;2023-04-19T00:25:37;98568.13;;;12.46;63.52
40982;BME280;26708;50.304;19.028;2023-04-19T00:27:42;98501.19;;;11.98;63.56
40982;BME280;26708;50.304;19.028;2023-04-19T00:29:47;98562.13;;;12.33;63.97
40982;BME280;26708;50.304;19.028;2023-04-19T00:31:51;98502.09;;;11.97;63.78
40982;BME280;26708;50.304;19.028;2023-04-19T00:33:56;98563.06;;;12.28;63.94
40982;BME280;26708;50.304;19.028;2023-04-19T00:36:04;98478.69;;;11.75;63.79
40982;BME280;26708;50.304;19.028;2023-04-19T00:38:08;98523.06;;;12.05;64.01
40982;BME280;26708;50.304;19.028;2023-04-19T00:40:14;98550.84;;;12.24;64.03
40982;BME280;26708;50.304;19.028;2023-04-19T00:42:18;98521.31;;;12.04;63.80
40982;BME280;26708;50.304;19.028;2023-04-19T00:44:23;98549.09;;;12.24;63.74
40982;BME280;26708;50.304;19.028;2023-04-19T00:46:29;98549.06;;;12.26;63.93
40982;BME280;26708;50.304;19.028;2023-04-19T00:48:34;98546.44;;;12.26;63.86
40982;BME280;26708;50.304;19.028;2023-04-19T00:50:39;98546.44;;;12.26;63.83
40982;BME280;26708;50.304;19.028;2023-04-19T00:52:48;98536.84;;;12.25;63.79
40982;BME280;26708;50.304;19.028;2023-04-19T00:54:57;98496.81;;;12.00;63.47
40982;BME280;26708;50.304;19.028;2023-04-19T00:57:03;98536.03;;;12.20;63.50
40982;BME280;26708;50.304;19.028;2023-04-19T00:59:10;98531.63;;;12.19;63.52
40982;BME280;26708;50.304;19.028;2023-04-19T01:01:15;98535.16;;;12.18;63.33
40982;BME280;26708;50.304;19.028;2023-04-19T01:03:20;98534.25;;;12.20;63.53
40982;BME280;26708;50.304;19.028;2023-04-19T01:05:28;98473.41;;;11.77;63.13
40982;BME280;26708;50.304;19.028;2023-04-19T01:07:33;98457.66;;;11.81;62.90
40982;BME280;26708;50.304;19.028;2023-04-19T01:09:43;98476.78;;;11.93;62.96
40982;BME280;26708;50.304;19.028;2023-04-19T01:11:49;98347.31;;;11.12;62.51
40982;BME280;26708;50.304;19.028;2023-04-19T01:13:54;98510.75;;;12.10;62.74
40982;BME280;26708;50.304;19.028;2023-04-19T01:15:59;98506.44;;;12.03;62.72
40982;BME280;26708;50.304;19.028;2023-04-19T01:18:05;98475.16;;;11.79;63.07
40982;BME280;26708;50.304;19.028;2023-04-19T01:20:10;98486.44;;;11.87;63.13
40982;BME280;26708;50.304;19.028;2023-04-19T01:22:19;98502.97;;;12.01;62.94
40982;BME280;26708;50.304;19.028;2023-04-19T01:24:25;98467.22;;;11.85;62.86
40982;BME280;26708;50.304;19.028;2023-04-19T01:26:29;98505.56;;;12.02;62.96
40982;BME280;26708;50.304;19.028;2023-04-19T01:28:36;98451.69;;;11.67;62.49
40982;BME280;26708;50.304;19.028;2023-04-19T01:30:42;98494.19;;;12.03;62.58
40982;BME280;26708;50.304;19.028;2023-04-19T01:32:46;98493.34;;;12.02;62.23
40982;BME280;26708;50.304;19.028;2023-04-19T01:34:51;98491.59;;;12.00;62.27
40982;BME280;26708;50.304;19.028;2023-04-19T01:36:57;98495.09;;;12.01;62.38
40982;BME280;26708;50.304;19.028;2023-04-19T01:39:04;98489.84;;;12.01;62.23
40982;BME280;26708;50.304;19.028;2023-04-19T01:41:09;98484.59;;;12.01;62.44
40982;BME280;26708;50.304;19.028;2023-04-19T01:43:16;98485.44;;;12.00;62.36
40982;BME280;26708;50.304;19.028;2023-04-19T01:45:21;98482.84;;;12.02;62.22
40982;BME280;26708;50.304;19.028;2023-04-19T01:47:26;98473.22;;;12.02;62.28
40982;BME280;26708;50.304;19.028;2023-04-19T01:49:31;98457.59;;;11.87;61.85
40982;BME280;26708;50.304;19.028;2023-04-19T01:51:37;98388.00;;;11.53;61.89
40982;BME280;26708;50.304;19.028;2023-04-19T01:53:42;98471.47;;;12.02;61.75
40982;BME280;26708;50.304;19.028;2023-04-19T01:55:49;98476.72;;;12.01;61.89
40982;BME280;26708;50.304;19.028;2023-04-19T01:57:54;98420.22;;;11.67;62.18
40982;BME280;26708;50.304;19.028;2023-04-19T02:00:00;98473.28;;;11.93;62.36
40982;BME280;26708;50.304;19.028;2023-04-19T02:02:15;98430.69;;;11.67;62.43
40982;BME280;26708;50.304;19.028;2023-04-19T02:04:19;98480.25;;;11.95;62.37
40982;BME280;26708;50.304;19.028;2023-04-19T02:06:25;98408.06;;;11.57;62.45
40982;BME280;26708;50.304;19.028;2023-04-19T02:08:30;98473.22;;;11.97;62.04
40982;BME280;26708;50.304;19.028;2023-04-19T02:10:34;98471.50;;;11.96;62.13
40982;BME280;26708;50.304;19.028;2023-04-19T02:12:45;98466.25;;;11.96;62.14
40982;BME280;26708;50.304;19.028;2023-04-19T02:14:50;98467.97;;;11.97;61.84
40982;BME280;26708;50.304;19.028;2023-04-19T02:17:04;98466.25;;;11.96;61.79
40982;BME280;26708;50.304;19.028;2023-04-19T02:19:09;98473.22;;;11.96;61.81
40982;BME280;26708;50.304;19.028;2023-04-19T02:21:14;98457.53;;;11.91;61.47
40982;BME280;26708;50.304;19.028;2023-04-19T02:23:18;98462.84;;;11.88;61.72
40982;BME280;26708;50.304;19.028;2023-04-19T02:25:24;98383.75;;;11.43;61.88
40982;BME280;26708;50.304;19.028;2023-04-19T02:27:28;98463.72;;;11.86;62.07
40982;BME280;26708;50.304;19.028;2023-04-19T02:29:36;98396.75;;;11.49;62.09
40982;BME280;26708;50.304;19.028;2023-04-19T02:31:42;98427.22;;;11.64;62.51
40982;BME280;26708;50.304;19.028;2023-04-19T02:33:46;98337.72;;;11.12;62.62
40982;BME280;26708;50.304;19.028;2023-04-19T02:35:51;98423.78;;;11.60;62.90
40982;BME280;26708;50.304;19.028;2023-04-19T02:37:56;98415.09;;;11.52;62.99
40982;BME280;26708;50.304;19.028;2023-04-19T02:40:00;98451.63;;;11.72;63.08
40982;BME280;26708;50.304;19.028;2023-04-19T02:42:05;98426.47;;;11.51;62.75
40982;BME280;26708;50.304;19.028;2023-04-19T02:44:11;98450.84;;;11.62;63.29
40982;BME280;26708;50.304;19.028;2023-04-19T02:46:19;98339.63;;;10.92;63.50
40982;BME280;26708;50.304;19.028;2023-04-19T02:48:24;98229.34;;;10.23;63.91
40982;BME280;26708;50.304;19.028;2023-04-19T02:50:30;98417.84;;;11.36;63.73
40982;BME280;26708;50.304;19.028;2023-04-19T02:52:36;98450.91;;;11.53;64.01
40982;BME280;26708;50.304;19.028;2023-04-19T02:54:41;98442.16;;;11.53;64.15
40982;BME280;26708;50.304;19.028;2023-04-19T02:56:46;98440.47;;;11.49;63.80
40982;BME280;26708;50.304;19.028;2023-04-19T02:58:52;98434.41;;;11.42;63.95
40982;BME280;26708;50.304;19.028;2023-04-19T03:00:57;98437.03;;;11.38;64.33
40982;BME280;26708;50.304;19.028;2023-04-19T03:03:05;98421.47;;;11.20;64.35
40982;BME280;26708;50.304;19.028;2023-04-19T03:05:10;98426.69;;;11.23;64.65
40982;BME280;26708;50.304;19.028;2023-04-19T03:07:14;98243.38;;;10.04;65.17
40982;BME280;26708;50.304;19.028;2023-04-19T03:09:20;98404.09;;;11.08;65.27
40982;BME280;26708;50.304;19.028;2023-04-19T03:11:25;98390.16;;;11.08;65.03
40982;BME280;26708;50.304;19.028;2023-04-19T03:13:29;98379.72;;;11.02;64.71
40982;BME280;26708;50.304;19.028;2023-04-19T03:15:34;98302.34;;;10.53;64.87
40982;BME280;26708;50.304;19.028;2023-04-19T03:17:39;98237.25;;;10.09;65.00
40982;BME280;26708;50.304;19.028;2023-04-19T03:19:47;98354.47;;;10.87;64.98
40982;BME280;26708;50.304;19.028;2023-04-19T03:21:52;98405.75;;;11.20;65.36
40982;BME280;26708;50.304;19.028;2023-04-19T03:23:57;98373.63;;;10.98;65.06
40982;BME280;26708;50.304;19.028;2023-04-19T03:26:02;98292.81;;;10.47;65.69
40982;BME280;26708;50.304;19.028;2023-04-19T03:28:16;98397.09;;;11.12;65.70
40982;BME280;26708;50.304;19.028;2023-04-19T03:30:39;98404.94;;;11.12;65.55
40982;BME280;26708;50.304;19.028;2023-04-19T03:32:45;98396.25;;;11.10;65.76
40982;BME280;26708;50.304;19.028;2023-04-19T03:34:53;98397.97;;;11.09;65.71
40982;BME280;26708;50.304;19.028;2023-04-19T03:36:58;98373.63;;;10.95;65.72
40982;BME280;26708;50.304;19.028;2023-04-19T03:39:04;98397.13;;;11.06;65.52
40982;BME280;26708;50.304;19.028;2023-04-19T03:41:18;98393.66;;;11.04;65.92
40982;BME280;26708;50.304;19.028;2023-04-19T03:43:27;98394.59;;;10.95;65.66
40982;BME280;26708;50.304;19.028;2023-04-19T03:45:31;98381.56;;;10.83;65.90
40982;BME280;26708;50.304;19.028;2023-04-19T03:47:36;98378.13;;;10.77;66.29
40982;BME280;26708;50.304;19.028;2023-04-19T03:49:41;98350.31;;;10.61;66.47
40982;BME280;26708;50.304;19.028;2023-04-19T03:51:49;98326.88;;;10.38;66.16
40982;BME280;26708;50.304;19.028;2023-04-19T03:53:55;98345.94;;;10.55;66.30
40982;BME280;26708;50.304;19.028;2023-04-19T03:55:59;98379.91;;;10.64;66.41
40982;BME280;26708;50.304;19.028;2023-04-19T03:58:06;98369.44;;;10.64;66.59
40982;BME280;26708;50.304;19.028;2023-04-19T04:00:21;98363.38;;;10.58;66.08
40982;BME280;26708;50.304;19.028;2023-04-19T04:02:31;98358.22;;;10.49;66.45
40982;BME280;26708;50.304;19.028;2023-04-19T04:04:35;98353.00;;;10.44;66.27
40982;BME280;26708;50.304;19.028;2023-04-19T04:06:41;98352.16;;;10.41;66.49
40982;BME280;26708;50.304;19.028;2023-04-19T04:08:50;98347.81;;;10.38;66.67
40982;BME280;26708;50.304;19.028;2023-04-19T04:10:54;98349.59;;;10.32;66.52
40982;BME280;26708;50.304;19.028;2023-04-19T04:13:00;98350.44;;;10.32;67.15
40982;BME280;26708;50.304;19.028;2023-04-19T04:15:14;98350.41;;;10.37;66.94
40982;BME280;26708;50.304;19.028;2023-04-19T04:17:23;98350.38;;;10.43;66.52
40982;BME280;26708;50.304;19.028;2023-04-19T04:19:28;98353.84;;;10.45;66.29
40982;BME280;26708;50.304;19.028;2023-04-19T04:21:33;98361.72;;;10.46;65.76
40982;BME280;26708;50.304;19.028;2023-04-19T04:23:40;98352.09;;;10.48;66.07
40982;BME280;26708;50.304;19.028;2023-04-19T04:25:59;98257.41;;;9.89;65.40
40982;BME280;26708;50.304;19.028;2023-04-19T04:28:19;98351.25;;;10.46;65.51
40982;BME280;26708;50.304;19.028;2023-04-19T04:30:23;98232.22;;;9.78;65.41
40982;BME280;26708;50.304;19.028;2023-04-19T04:32:30;98208.78;;;9.64;65.61
40982;BME280;26708;50.304;19.028;2023-04-19T04:34:37;98355.56;;;10.52;65.75
40982;BME280;26708;50.304;19.028;2023-04-19T04:36:46;98353.84;;;10.54;65.35
40982;BME280;26708;50.304;19.028;2023-04-19T04:38:53;98346.84;;;10.54;65.73
40982;BME280;26708;50.304;19.028;2023-04-19T04:41:00;98341.59;;;10.53;64.97
40982;BME280;26708;50.304;19.028;2023-04-19T04:43:06;98341.63;;;10.50;64.70
40982;BME280;26708;50.304;19.028;2023-04-19T04:45:13;98344.25;;;10.48;65.02
40982;BME280;26708;50.304;19.028;2023-04-19T04:47:20;98343.41;;;10.48;64.98
40982;BME280;26708;50.304;19.028;2023-04-19T04:49:28;98350.34;;;10.53;65.23
40982;BME280;26708;50.304;19.028;2023-04-19T04:51:34;98361.63;;;10.61;65.31
40982;BME280;26708;50.304;19.028;2023-04-19T04:53:39;98358.97;;;10.67;64.81
40982;BME280;26708;50.304;19.028;2023-04-19T04:55:44;98149.56;;;9.50;64.59
40982;BME280;26708;50.304;19.028;2023-04-19T04:57:52;98305.03;;;10.44;64.37
40982;BME280;26708;50.304;19.028;2023-04-19T05:00:15;98353.63;;;10.81;64.43
40982;BME280;26708;50.304;19.028;2023-04-19T05:02:29;98351.00;;;10.84;64.63
40982;BME280;26708;50.304;19.028;2023-04-19T05:04:34;98357.97;;;10.92;64.73
40982;BME280;26708;50.304;19.028;2023-04-19T05:06:38;98355.31;;;10.98;64.74
40982;BME280;26708;50.304;19.028;2023-04-19T05:08:45;98357.88;;;11.04;64.66
40982;BME280;26708;50.304;19.028;2023-04-19T05:10:55;98353.53;;;11.02;64.43
40982;BME280;26708;50.304;19.028;2023-04-19T05:13:06;98345.69;;;11.00;64.63
40982;BME280;26708;50.304;19.028;2023-04-19T05:15:11;98282.25;;;10.58;64.84
40982;BME280;26708;50.304;19.028;2023-04-19T05:17:22;98345.69;;;11.00;64.90
40982;BME280;26708;50.304;19.028;2023-04-19T05:19:27;98329.16;;;10.92;64.91
40982;BME280;26708;50.304;19.028;2023-04-19T05:21:37;98350.88;;;11.05;64.33
40982;BME280;26708;50.304;19.028;2023-04-19T05:23:44;98347.41;;;11.03;64.42
40982;BME280;26708;50.304;19.028;2023-04-19T05:25:50;98346.59;;;10.92;64.47
40982;BME280;26708;50.304;19.028;2023-04-19T05:27:57;98231.94;;;10.20;64.89
40982;BME280;26708;50.304;19.028;2023-04-19T05:30:12;98351.00;;;10.85;64.70
40982;BME280;26708;50.304;19.028;2023-04-19T05:32:19;98344.94;;;10.80;64.40
40982;BME280;26708;50.304;19.028;2023-04-19T05:34:28;98291.09;;;10.40;64.72
40982;BME280;26708;50.304;19.028;2023-04-19T05:36:35;98354.56;;;10.72;64.63
40982;BME280;26708;50.304;19.028;2023-04-19T05:38:40;98358.97;;;10.67;64.56
40982;BME280;26708;50.304;19.028;2023-04-19T05:40:44;98359.88;;;10.62;64.58
40982;BME280;26708;50.304;19.028;2023-04-19T05:42:50;98356.47;;;10.49;64.17
40982;BME280;26708;50.304;19.028;2023-04-19T05:44:54;98363.47;;;10.41;64.08
40982;BME280;26708;50.304;19.028;2023-04-19T05:47:01;98339.19;;;10.21;64.40
40982;BME280;26708;50.304;19.028;2023-04-19T05:49:27;98354.03;;;10.15;64.52
40982;BME280;26708;50.304;19.028;2023-04-19T05:51:50;98350.59;;;10.05;65.01
40982;BME280;26708;50.304;19.028;2023-04-19T05:54:14;98367.19;;;9.95;65.34
40982;BME280;26708;50.304;19.028;2023-04-19T05:56:22;98361.97;;;9.89;65.17
40982;BME280;26708;50.304;19.028;2023-04-19T05:58:27;98364.59;;;9.83;65.50
40982;BME280;26708;50.304;19.028;2023-04-19T06:00:31;98336.75;;;9.76;63.89
40982;BME280;26708;50.304;19.028;2023-04-19T06:02:47;98368.97;;;9.78;63.34
40982;BME280;26708;50.304;19.028;2023-04-19T06:04:51;98369.84;;;9.71;62.88
40982;BME280;26708;50.304;19.028;2023-04-19T06:06:58;98350.72;;;9.53;61.84
40982;BME280;26708;50.304;19.028;2023-04-19T06:09:03;98369.84;;;9.53;61.29
40982;BME280;26708;50.304;19.028;2023-04-19T06:11:07;98375.97;;;9.46;61.53
40982;BME280;26708;50.304;19.028;2023-04-19T06:13:12;98370.75;;;9.45;61.30
40982;BME280;26708;50.304;19.028;2023-04-19T06:15:18;98302.88;;;9.01;61.34
40982;BME280;26708;50.304;19.028;2023-04-19T06:17:22;98375.09;;;9.47;61.35
40982;BME280;26708;50.304;19.028;2023-04-19T06:19:29;98368.13;;;9.46;61.39
40982;BME280;26708;50.304;19.028;2023-04-19T06:21:35;98369.88;;;9.49;61.68
40982;BME280;26708;50.304;19.028;2023-04-19T06:23:40;98374.22;;;9.57;61.84
40982;BME280;26708;50.304;19.028;2023-04-19T06:25:45;98349.84;;;9.49;61.69
40982;BME280;26708;50.304;19.028;2023-04-19T06:27:51;98242.91;;;8.95;61.55
40982;BME280;26708;50.304;19.028;2023-04-19T06:29:55;98380.28;;;9.71;60.65
40982;BME280;26708;50.304;19.028;2023-04-19T06:32:01;98383.81;;;9.64;60.56
40982;BME280;26708;50.304;19.028;2023-04-19T06:34:06;98383.78;;;9.57;60.93
40982;BME280;26708;50.304;19.028;2023-04-19T06:36:13;98388.16;;;9.47;61.59
40982;BME280;26708;50.304;19.028;2023-04-19T06:38:18;98370.75;;;9.49;61.85
40982;BME280;26708;50.304;19.028;2023-04-19T06:40:23;98301.16;;;9.11;61.71
40982;BME280;26708;50.304;19.028;2023-04-19T06:42:28;98376.81;;;9.54;62.14
40982;BME280;26708;50.304;19.028;2023-04-19T06:44:34;98382.91;;;9.58;62.01
40982;BME280;26708;50.304;19.028;2023-04-19T06:46:39;98378.56;;;9.51;61.93
40982;BME280;26708;50.304;19.028;2023-04-19T06:48:44;98379.47;;;9.47;62.24
40982;BME280;26708;50.304;19.028;2023-04-19T06:50:48;98374.22;;;9.47;62.94
40982;BME280;26708;50.304;19.028;2023-04-19T06:52:56;98377.69;;;9.47;62.67
40982;BME280;26708;50.304;19.028;2023-04-19T06:55:01;98362.03;;;9.38;63.21
40982;BME280;26708;50.304;19.028;2023-04-19T06:57:06;98276.84;;;8.86;63.09
40982;BME280;26708;50.304;19.028;2023-04-19T06:59:11;98355.09;;;9.28;63.66
40982;BME280;26708;50.304;19.028;2023-04-19T07:01:17;98379.44;;;9.39;62.95
40982;BME280;26708;50.304;19.028;2023-04-19T07:03:22;98382.06;;;9.35;62.95
40982;BME280;26708;50.304;19.028;2023-04-19T07:05:28;98380.34;;;9.31;63.71
40982;BME280;26708;50.304;19.028;2023-04-19T07:07:34;98372.50;;;9.31;63.36
40982;BME280;26708;50.304;19.028;2023-04-19T07:09:43;98369.91;;;9.37;63.23
40982;BME280;26708;50.304;19.028;2023-04-19T07:11:49;98376.00;;;9.30;62.69
40982;BME280;26708;50.304;19.028;2023-04-19T07:13:53;98371.63;;;9.27;63.18
40982;BME280;26708;50.304;19.028;2023-04-19T07:15:58;98310.72;;;8.88;63.35
40982;BME280;26708;50.304;19.028;2023-04-19T07:18:03;98377.72;;;9.32;63.37
40982;BME280;26708;50.304;19.028;2023-04-19T07:20:10;98378.59;;;9.39;63.33
40982;BME280;26708;50.304;19.028;2023-04-19T07:22:14;98385.53;;;9.38;62.99
40982;BME280;26708;50.304;19.028;2023-04-19T07:24:20;98389.91;;;9.30;62.40
40982;BME280;26708;50.304;19.028;2023-04-19T07:26:28;98375.13;;;9.22;62.97
40982;BME280;26708;50.304;19.028;2023-04-19T07:28:32;98376.84;;;9.20;63.06
40982;BME280;26708;50.304;19.028;2023-04-19T07:30:38;98387.28;;;9.20;63.02
40982;BME280;26708;50.304;19.028;2023-04-19T07:32:46;98380.34;;;9.17;63.12
40982;BME280;26708;50.304;19.028;2023-04-19T07:34:51;98388.19;;;9.17;63.42
40982;BME280;26708;50.304;19.028;2023-04-19T07:36:56;98398.63;;;9.25;64.14
40982;BME280;26708;50.304;19.028;2023-04-19T07:39:01;98367.28;;;9.14;63.52
40982;BME280;26708;50.304;19.028;2023-04-19T07:41:07;98396.03;;;9.37;63.96
40982;BME280;26708;50.304;19.028;2023-04-19T07:43:16;98397.72;;;9.45;64.16
40982;BME280;26708;50.304;19.028;2023-04-19T07:45:21;98393.38;;;9.47;63.85
40982;BME280;26708;50.304;19.028;2023-04-19T07:47:25;98395.97;;;9.58;63.78
40982;BME280;26708;50.304;19.028;2023-04-19T07:49:30;98335.97;;;9.22;62.62
40982;BME280;26708;50.304;19.028;2023-04-19T07:51:35;98397.69;;;9.63;63.13
40982;BME280;26708;50.304;19.028;2023-04-19T07:53:40;98369.00;;;9.48;63.33
40982;BME280;26708;50.304;19.028;2023-04-19T07:55:46;98256.81;;;8.88;63.35
40982;BME280;26708;50.304;19.028;2023-04-19T07:57:50;98395.97;;;9.79;63.25
40982;BME280;26708;50.304;19.028;2023-04-19T07:59:57;98399.47;;;9.84;62.67
40982;BME280;26708;50.304;19.028;2023-04-19T08:02:03;98393.34;;;9.89;61.57
40982;BME280;26708;50.304;19.028;2023-04-19T08:04:08;98395.06;;;9.89;61.44
40982;BME280;26708;50.304;19.028;2023-04-19T08:06:12;98398.56;;;9.89;61.51
40982;BME280;26708;50.304;19.028;2023-04-19T08:08:18;98291.56;;;9.31;61.34
40982;BME280;26708;50.304;19.028;2023-04-19T08:10:23;98391.59;;;9.99;60.83
40982;BME280;26708;50.304;19.028;2023-04-19T08:12:30;98383.75;;;9.87;61.10
40982;BME280;26708;50.304;19.028;2023-04-19T08:14:35;98320.22;;;9.49;61.20
40982;BME280;26708;50.304;19.028;2023-04-19T08:16:45;98388.09;;;9.92;60.62
40982;BME280;26708;50.304;19.028;2023-04-19T08:18:50;98360.25;;;9.75;60.90
40982;BME280;26708;50.304;19.028;2023-04-19T08:20:56;98385.47;;;9.91;60.36
40982;BME280;26708;50.304;19.028;2023-04-19T08:23:01;98382.03;;;9.86;59.80
40982;BME280;26708;50.304;19.028;2023-04-19T08:25:07;98386.38;;;9.85;60.23
40982;BME280;26708;50.304;19.028;2023-04-19T08:27:13;98384.63;;;9.84;60.20
40982;BME280;26708;50.304;19.028;2023-04-19T08:29:18;98390.69;;;9.91;60.95
40982;BME280;26708;50.304;19.028;2023-04-19T08:31:23;98309.75;;;9.52;60.51
40982;BME280;26708;50.304;19.028;2023-04-19T08:33:30;98389.81;;;10.01;60.51
40982;BME280;26708;50.304;19.028;2023-04-19T08:35:36;98383.69;;;10.08;61.15
40982;BME280;26708;50.304;19.028;2023-04-19T08:37:41;98381.91;;;10.14;61.68
40982;BME280;26708;50.304;19.028;2023-04-19T08:39:46;98380.16;;;10.16;60.15
40982;BME280;26708;50.304;19.028;2023-04-19T08:41:51;98380.19;;;10.15;59.99
40982;BME280;26708;50.304;19.028;2023-04-19T08:43:58;98388.00;;;10.18;60.18
40982;BME280;26708;50.304;19.028;2023-04-19T08:46:06;98381.88;;;10.22;59.69
40982;BME280;26708;50.304;19.028;2023-04-19T08:48:14;98379.28;;;10.17;60.23
40982;BME280;26708;50.304;19.028;2023-04-19T08:50:22;98380.06;;;10.36;60.50
40982;BME280;26708;50.304;19.028;2023-04-19T08:52:29;98329.66;;;10.10;59.99
40982;BME280;26708;50.304;19.028;2023-04-19T08:54:37;98378.31;;;10.42;59.41
40982;BME280;26708;50.304;19.028;2023-04-19T08:56:42;98373.91;;;10.47;59.69
40982;BME280;26708;50.304;19.028;2023-04-19T08:58:48;98369.50;;;10.55;60.36
40982;BME280;26708;50.304;19.028;2023-04-19T09:00:52;98344.25;;;10.48;59.74
40982;BME280;26708;50.304;19.028;2023-04-19T09:02:57;98372.97;;;10.62;59.25
40982;BME280;26708;50.304;19.028;2023-04-19T09:05:03;98368.59;;;10.65;59.92
40982;BME280;26708;50.304;19.028;2023-04-19T09:07:21;98343.31;;;10.61;60.14
40982;BME280;26708;50.304;19.028;2023-04-19T09:09:28;98373.66;;;10.91;59.98
40982;BME280;26708;50.304;19.028;2023-04-19T09:11:36;98323.13;;;10.78;59.72
40982;BME280;26708;50.304;19.028;2023-04-19T09:13:41;98352.66;;;11.01;59.02
40982;BME280;26708;50.304;19.028;2023-04-19T09:15:45;98367.44;;;11.10;57.99
40982;BME280;26708;50.304;19.028;2023-04-19T09:18:03;98376.28;;;10.94;57.29
40982;BME280;26708;50.304;19.028;2023-04-19T09:20:10;98366.72;;;10.82;57.59
40982;BME280;26708;50.304;19.028;2023-04-19T09:22:18;98366.81;;;10.67;58.12
40982;BME280;26708;50.304;19.028;2023-04-19T09:24:36;98372.13;;;10.55;58.52
40982;BME280;26708;50.304;19.028;2023-04-19T09:26:53;98340.94;;;10.19;58.87
40982;BME280;26708;50.304;19.028;2023-04-19T09:29:00;98373.16;;;10.24;59.39
40982;BME280;26708;50.304;19.028;2023-04-19T09:31:10;98367.09;;;10.16;60.04
40982;BME280;26708;50.304;19.028;2023-04-19T09:33:30;98321.06;;;9.84;60.15
40982;BME280;26708;50.304;19.028;2023-04-19T09:35:41;98374.06;;;10.13;60.80
40982;BME280;26708;50.304;19.028;2023-04-19T09:38:00;98372.34;;;10.10;60.46
40982;BME280;26708;50.304;19.028;2023-04-19T09:40:21;98301.94;;;9.56;60.38
40982;BME280;26708;50.304;19.028;2023-04-19T09:42:44;98353.28;;;9.86;60.60
40982;BME280;26708;50.304;19.028;2023-04-19T09:44:56;98355.03;;;9.75;60.45
40982;BME280;26708;50.304;19.028;2023-04-19T09:47:02;98310.66;;;9.46;61.06
40982;BME280;26708;50.304;19.028;2023-04-19T09:49:24;98379.41;;;9.92;61.92
40982;BME280;26708;50.304;19.028;2023-04-19T09:51:39;98378.50;;;9.97;61.68
40982;BME280;26708;50.304;19.028;2023-04-19T09:53:48;98308.00;;;9.60;60.07
40982;BME280;26708;50.304;19.028;2023-04-19T09:55:52;98375.03;;;9.92;60.28
40982;BME280;26708;50.304;19.028;2023-04-19T09:57:59;98382.88;;;9.95;60.63
40982;BME280;26708;50.304;19.028;2023-04-19T10:00:05;98387.19;;;10.02;60.97
40982;BME280;26708;50.304;19.028;2023-04-19T10:02:15;98388.03;;;10.10;60.51
40982;BME280;26708;50.304;19.028;2023-04-19T10:04:21;98393.25;;;10.15;60.06
40982;BME280;26708;50.304;19.028;2023-04-19T10:06:27;98358.44;;;10.05;59.44
40982;BME280;26708;50.304;19.028;2023-04-19T10:08:32;98385.38;;;10.21;59.44
40982;BME280;26708;50.304;19.028;2023-04-19T10:10:44;98384.53;;;10.20;59.53
40982;BME280;26708;50.304;19.028;2023-04-19T10:12:56;98393.25;;;10.18;59.46
40982;BME280;26708;50.304;19.028;2023-04-19T10:15:06;98358.44;;;10.01;60.09
40982;BME280;26708;50.304;19.028;2023-04-19T10:17:15;98366.31;;;9.96;60.37
40982;BME280;26708;50.304;19.028;2023-04-19T10:19:21;98292.38;;;9.52;61.14
40982;BME280;26708;50.304;19.028;2023-04-19T10:21:28;98373.22;;;10.09;61.05
40982;BME280;26708;50.304;19.028;2023-04-19T10:23:36;98379.31;;;10.13;61.43
40982;BME280;26708;50.304;19.028;2023-04-19T10:25:45;98373.19;;;10.14;61.43
40982;BME280;26708;50.304;19.028;2023-04-19T10:27:50;98375.78;;;10.20;61.26
40982;BME280;26708;50.304;19.028;2023-04-19T10:29:59;98372.31;;;10.16;61.12
40982;BME280;26708;50.304;19.028;2023-04-19T10:32:12;98380.16;;;10.18;61.00
40982;BME280;26708;50.304;19.028;2023-04-19T10:34:36;98380.19;;;10.10;60.90
40982;BME280;26708;50.304;19.028;2023-04-19T10:36:43;98376.72;;;10.05;60.87
40982;BME280;26708;50.304;19.028;2023-04-19T10:38:49;98347.16;;;9.79;60.89
40982;BME280;26708;50.304;19.028;2023-04-19T10:40:59;98378.50;;;9.99;60.88
40982;BME280;26708;50.304;19.028;2023-04-19T10:43:16;98381.13;;;9.97;60.80
40982;BME280;26708;50.304;19.028;2023-04-19T10:45:31;98381.13;;;9.93;61.07
40982;BME280;26708;50.304;19.028;2023-04-19T10:47:43;98381.09;;;9.94;61.39
40982;BME280;26708;50.304;19.028;2023-04-19T10:49:49;98335.03;;;9.71;61.59
40982;BME280;26708;50.304;19.028;2023-04-19T10:51:55;98379.34;;;10.07;61.75
40982;BME280;26708;50.304;19.028;2023-04-19T10:54:01;98381.06;;;10.18;61.55
40982;BME280;26708;50.304;19.028;2023-04-19T10:56:10;98385.38;;;10.21;60.50
40982;BME280;26708;50.304;19.028;2023-04-19T10:58:15;98386.25;;;10.23;60.35
40982;BME280;26708;50.304;19.028;2023-04-19T11:00:21;98334.06;;;9.96;60.04
40982;BME280;26708;50.304;19.028;2023-04-19T11:02:32;98387.97;;;10.25;60.22
40982;BME280;26708;50.304;19.028;2023-04-19T11:04:58;98388.81;;;10.33;60.32
40982;BME280;26708;50.304;19.028;2023-04-19T11:07:05;98386.16;;;10.41;60.47